Time;durP1;ratioP1;P1;durP2;ratioP2;P2;SDS_P1;SDS_P2;PMS_P1;PMS_P2;Temp;Humidity;BMP_temperature;BMP_pressure;BME280_temperature;BME280_humidity;BME280_pressure;Samples;Min_cycle;Max_cycle;Signal;HPM_P1;HPM_P2
2022/05/20 00:02:14;;;;;;;10.38;5.90;;;15.60;99.90;;;;;;5074225;28;20049;-70
2022/05/20 00:04:40;;;;;;;10.10;6.80;;;15.40;99.90;;;;;;5057089;28;20088;-70
2022/05/20 00:07:06;;;;;;;8.30;5.25;;;15.50;99.90;;;;;;5057267;28;20053;-70
2022/05/20 00:09:32;;;;;;;9.70;6.20;;;15.50;99.90;;;;;;5074901;28;20044;-70
2022/05/20 00:11:58;;;;;;;9.68;6.63;;;15.60;99.90;;;;;;5075192;28;20454;-70
2022/05/20 00:14:24;;;;;;;11.93;6.88;;;15.60;99.90;;;;;;5057348;28;20052;-70
2022/05/20 00:16:49;;;;;;;13.68;7.40;;;15.50;99.90;;;;;;5074424;28;20048;-74
2022/05/20 00:19:15;;;;;;;9.73;6.80;;;15.70;99.90;;;;;;5075356;28;20055;-70
2022/05/20 00:21:41;;;;;;;12.00;7.05;;;15.60;99.90;;;;;;5074577;28;20048;-70
2022/05/20 00:24:07;;;;;;;8.60;7.15;;;15.60;99.90;;;;;;5074990;28;20544;-70
2022/05/20 00:26:32;;;;;;;15.45;6.53;;;15.70;99.90;;;;;;5057049;28;20110;-70
2022/05/20 00:28:58;;;;;;;10.27;6.97;;;15.70;99.90;;;;;;5057025;28;20076;-70
2022/05/20 00:31:25;;;;;;;11.10;6.63;;;15.80;99.90;;;;;;5074435;28;20045;-70
2022/05/20 00:33:51;;;;;;;12.10;6.90;;;16.00;99.90;;;;;;5057122;28;20044;-70
2022/05/20 00:36:18;;;;;;;12.48;7.25;;;16.10;99.90;;;;;;5074572;28;20082;-70
2022/05/20 00:38:44;;;;;;;11.05;6.40;;;16.00;99.90;;;;;;5074520;28;20063;-70
2022/05/20 00:41:10;;;;;;;11.40;5.88;;;16.10;99.90;;;;;;5074620;28;20126;-70
2022/05/20 00:43:40;;;;;;;9.85;5.70;;;16.10;99.90;;;;;;5056583;28;20044;-70
2022/05/20 00:46:10;;;;;;;10.68;5.78;;;16.10;99.90;;;;;;5074770;28;20141;-70
2022/05/20 00:48:36;;;;;;;13.07;6.45;;;16.10;99.90;;;;;;5073857;28;20084;-70
2022/05/20 00:51:17;;;;;;;9.38;5.28;;;16.00;99.90;;;;;;5074044;28;20051;-70
2022/05/20 00:54:06;;;;;;;11.63;6.30;;;16.10;99.90;;;;;;5074309;28;20045;-70
2022/05/20 00:56:48;;;;;;;12.57;7.43;;;16.10;99.90;;;;;;5074250;28;20203;-70
2022/05/20 00:59:19;;;;;;;10.50;5.68;;;16.20;99.90;;;;;;5074155;28;20055;-70
2022/05/20 01:01:50;;;;;;;8.88;5.47;;;16.30;99.90;;;;;;5074332;28;20084;-70
2022/05/20 01:04:17;;;;;;;12.40;6.10;;;16.30;99.90;;;;;;5074032;28;20052;-70
2022/05/20 01:06:43;;;;;;;8.80;5.50;;;16.30;99.90;;;;;;5073852;28;20045;-70
2022/05/20 01:09:09;;;;;;;9.63;6.07;;;16.20;99.90;;;;;;5074085;28;20045;-70
2022/05/20 01:11:38;;;;;;;15.00;6.75;;;16.20;99.90;;;;;;5073694;28;20044;-70
2022/05/20 01:14:04;;;;;;;8.75;6.25;;;16.10;99.90;;;;;;5073256;28;20044;-70
2022/05/20 01:16:31;;;;;;;10.07;6.57;;;16.10;99.90;;;;;;5073812;28;20087;-70
2022/05/20 01:18:57;;;;;;;11.60;6.70;;;16.00;99.90;;;;;;5073051;28;20539;-70
2022/05/20 01:21:23;;;;;;;9.50;6.13;;;15.90;99.90;;;;;;5056133;28;20062;-70
2022/05/20 01:23:49;;;;;;;11.82;6.47;;;15.80;99.90;;;;;;5073676;28;20040;-70
2022/05/20 01:26:15;;;;;;;11.73;7.13;;;15.70;99.90;;;;;;5073831;28;20040;-70
2022/05/20 01:28:41;;;;;;;10.25;6.78;;;15.50;99.90;;;;;;5073328;28;20092;-70
2022/05/20 01:31:12;;;;;;;11.05;6.18;;;15.50;99.90;;;;;;5074159;28;20101;-70
2022/05/20 01:33:42;;;;;;;9.50;7.32;;;15.40;99.90;;;;;;5073662;28;20037;-70
2022/05/20 01:36:11;;;;;;;13.57;7.72;;;15.20;99.90;;;;;;5073611;28;20056;-70
2022/05/20 01:38:37;;;;;;;12.82;7.35;;;15.20;99.90;;;;;;5056084;28;20057;-70
2022/05/20 01:41:14;;;;;;;12.55;6.90;;;15.20;99.90;;;;;;5073268;28;20088;-70
2022/05/20 01:43:53;;;;;;;13.90;7.07;;;15.20;99.90;;;;;;5073428;28;20504;-70
2022/05/20 01:46:29;;;;;;;10.13;6.72;;;15.20;99.90;;;;;;5055502;28;20397;-70
2022/05/20 01:49:23;;;;;;;9.63;6.93;;;15.20;99.90;;;;;;5072953;28;20507;-70
2022/05/20 01:52:05;;;;;;;13.57;7.20;;;15.20;99.90;;;;;;5055885;28;20052;-70
2022/05/20 01:54:56;;;;;;;10.27;6.82;;;15.30;99.90;;;;;;5073473;28;20485;-70
2022/05/20 01:57:44;;;;;;;13.27;7.53;;;15.30;99.90;;;;;;5073270;28;20497;-70
2022/05/20 02:00:16;;;;;;;14.00;7.38;;;15.30;99.90;;;;;;5073393;28;20091;-70
2022/05/20 02:03:04;;;;;;;12.00;8.50;;;15.40;99.90;;;;;;5055538;28;20064;-70
2022/05/20 02:05:37;;;;;;;11.57;7.25;;;15.40;99.90;;;;;;5055870;28;20048;-70
2022/05/20 02:08:31;;;;;;;11.43;6.90;;;15.50;99.90;;;;;;5073012;28;20049;-70
2022/05/20 02:11:14;;;;;;;12.15;7.72;;;15.50;99.90;;;;;;5072229;28;20074;-71
2022/05/20 02:13:46;;;;;;;10.88;7.30;;;15.50;99.90;;;;;;5073220;28;20102;-70
2022/05/20 02:16:19;;;;;;;11.75;7.20;;;15.50;99.90;;;;;;5055489;28;20045;-70
2022/05/20 02:18:52;;;;;;;9.70;6.90;;;15.40;99.90;;;;;;5055274;28;20436;-70
2022/05/20 02:21:24;;;;;;;10.68;6.85;;;15.40;99.90;;;;;;5073073;28;20036;-70
2022/05/20 02:23:54;;;;;;;12.30;7.25;;;15.40;99.90;;;;;;5073322;28;20052;-70
2022/05/20 02:26:24;;;;;;;9.75;6.75;;;15.40;99.90;;;;;;5041359;28;20052;-70
2022/05/20 02:28:58;;;;;;;16.23;8.65;;;15.30;99.90;;;;;;5076908;28;20505;-70
2022/05/20 02:31:37;;;;;;;19.70;7.68;;;15.30;99.90;;;;;;5076868;28;20102;-70
2022/05/20 02:34:03;;;;;;;14.38;7.35;;;15.10;99.90;;;;;;5076904;28;20045;-70
2022/05/20 02:36:34;;;;;;;8.38;6.38;;;15.20;99.90;;;;;;5076841;28;20040;-70
2022/05/20 02:39:02;;;;;;;10.10;7.15;;;15.20;99.90;;;;;;5059356;28;20091;-70
2022/05/20 02:41:29;;;;;;;10.30;7.25;;;15.10;99.90;;;;;;5076794;28;20044;-70
2022/05/20 02:43:55;;;;;;;11.18;6.90;;;15.00;99.90;;;;;;5076572;28;20052;-70
2022/05/20 02:46:21;;;;;;;8.98;6.30;;;15.00;99.90;;;;;;5059340;28;20055;-70
2022/05/20 02:48:47;;;;;;;9.70;6.70;;;15.00;99.90;;;;;;5076309;28;20392;-70
2022/05/20 02:51:16;;;;;;;11.73;7.82;;;14.90;99.90;;;;;;5076426;28;20044;-70
2022/05/20 02:53:43;;;;;;;13.15;7.63;;;14.90;99.90;;;;;;5076532;28;20044;-70
2022/05/20 02:56:08;;;;;;;9.05;7.05;;;14.90;99.90;;;;;;5076143;28;20052;-69
2022/05/20 03:04:12;;;;;;;17.02;8.95;;;14.90;99.90;;;;;;5076385;28;20052;-70
2022/05/20 03:06:47;;;;;;;11.48;8.32;;;14.90;99.90;;;;;;5076550;28;20075;-69
2022/05/20 03:09:15;;;;;;;12.45;8.32;;;14.90;99.90;;;;;;5058621;28;20059;-70
2022/05/20 03:11:41;;;;;;;11.60;8.48;;;14.80;99.90;;;;;;5076310;28;20044;-70
2022/05/20 03:14:09;;;;;;;11.80;8.25;;;14.80;99.90;;;;;;5058561;28;20055;-70
2022/05/20 03:16:37;;;;;;;14.02;8.15;;;14.80;99.90;;;;;;5076272;28;20119;-70
2022/05/20 03:19:04;;;;;;;10.73;7.53;;;14.80;99.90;;;;;;5075392;28;20397;-70
2022/05/20 03:21:30;;;;;;;10.45;7.85;;;14.70;99.90;;;;;;5076089;28;20047;-70
2022/05/20 03:23:59;;;;;;;13.55;8.20;;;14.60;99.90;;;;;;5076069;28;20420;-70
2022/05/20 03:26:26;;;;;;;12.10;7.85;;;14.60;99.90;;;;;;5058453;28;20064;-70
2022/05/20 03:28:52;;;;;;;11.43;7.57;;;14.50;99.90;;;;;;5075593;28;20056;-69
2022/05/20 03:31:18;;;;;;;12.98;7.03;;;14.50;99.90;;;;;;5075833;28;20102;-70
2022/05/20 03:33:46;;;;;;;10.98;7.57;;;14.40;99.90;;;;;;5075826;28;20048;-70
2022/05/20 03:36:12;;;;;;;8.75;6.18;;;14.40;99.90;;;;;;5075457;28;20084;-70
2022/05/20 03:38:39;;;;;;;8.00;6.50;;;14.40;99.90;;;;;;5058153;28;20539;-70
2022/05/20 03:41:05;;;;;;;6.45;5.50;;;14.40;99.90;;;;;;5075948;28;20040;-70
2022/05/20 03:43:33;;;;;;;8.07;5.70;;;14.30;99.90;;;;;;5075778;28;20067;-70
2022/05/20 03:45:59;;;;;;;6.88;4.85;;;14.20;99.90;;;;;;5057848;28;20049;-70
2022/05/20 03:48:25;;;;;;;8.70;4.97;;;14.10;99.90;;;;;;5074900;28;20110;-70
2022/05/20 03:50:51;;;;;;;5.53;4.00;;;14.10;99.90;;;;;;5057987;28;20045;-69
2022/05/20 03:53:17;;;;;;;5.45;4.43;;;14.10;99.90;;;;;;5075508;28;20066;-69
2022/05/20 03:55:43;;;;;;;8.15;5.63;;;14.10;99.90;;;;;;5075520;28;20048;-69
2022/05/20 03:58:09;;;;;;;7.15;5.18;;;14.10;99.90;;;;;;5075105;28;20052;-70
2022/05/20 04:03:19;;;;;;;9.60;6.40;;;14.10;99.90;;;;;;5075758;28;20114;-70
2022/05/20 04:05:45;;;;;;;9.70;7.00;;;14.10;99.90;;;;;;5057616;28;20045;-70
2022/05/20 04:08:12;;;;;;;11.93;7.15;;;14.10;99.90;;;;;;5075170;28;20178;-69
2022/05/20 04:10:37;;;;;;;10.30;7.32;;;14.10;99.90;;;;;;5057446;28;20057;-69
2022/05/20 04:13:03;;;;;;;8.50;7.43;;;14.10;99.90;;;;;;5075180;28;20053;-70
2022/05/20 04:15:28;;;;;;;14.52;10.40;;;14.20;99.90;;;;;;5049103;28;20059;-70
2022/05/20 04:17:54;;;;;;;13.43;10.15;;;14.20;99.90;;;;;;5055431;28;20101;-70
2022/05/20 04:20:20;;;;;;;12.85;10.20;;;14.30;99.90;;;;;;5075289;28;20128;-70
2022/05/20 04:22:45;;;;;;;13.80;9.57;;;14.40;99.90;;;;;;5057262;28;20050;-70
2022/05/20 04:25:12;;;;;;;15.50;10.90;;;14.40;99.90;;;;;;5057113;28;20047;-70
2022/05/20 04:27:38;;;;;;;16.27;10.65;;;14.50;99.90;;;;;;5056723;28;20058;-71
2022/05/20 04:30:06;;;;;;;13.65;10.05;;;14.50;99.90;;;;;;5057213;28;20469;-70
2022/05/20 04:32:31;;;;;;;14.70;11.00;;;14.50;99.90;;;;;;5074756;28;20127;-70
2022/05/20 04:34:57;;;;;;;13.68;10.73;;;14.60;99.90;;;;;;5074552;28;20123;-70
2022/05/20 04:37:25;;;;;;;17.27;10.88;;;14.60;99.90;;;;;;5074737;28;20048;-70
2022/05/20 04:39:51;;;;;;;16.02;10.68;;;14.50;99.90;;;;;;5056784;28;20040;-70
2022/05/20 04:47:45;;;;;;;17.15;11.45;;;14.70;99.90;;;;;;5073787;28;20071;-70
2022/05/20 04:50:11;;;;;;;18.27;13.73;;;14.70;99.90;;;;;;5073932;28;20488;-70
2022/05/20 04:52:37;;;;;;;18.13;12.45;;;14.90;99.90;;;;;;5074432;28;20049;-70
2022/05/20 04:55:04;;;;;;;16.55;12.30;;;15.00;99.90;;;;;;5056353;28;20045;-69
2022/05/20 04:57:37;;;;;;;16.13;11.93;;;15.00;99.90;;;;;;5074691;28;20094;-70
2022/05/20 05:00:10;;;;;;;17.85;12.10;;;15.10;99.90;;;;;;5074106;28;20101;-70
2022/05/20 05:02:37;;;;;;;17.23;12.63;;;15.10;99.90;;;;;;5056559;28;20101;-70
2022/05/20 05:05:07;;;;;;;17.27;11.63;;;15.10;99.90;;;;;;5073838;28;20122;-70
2022/05/20 05:07:36;;;;;;;18.88;13.02;;;15.20;99.90;;;;;;5056193;28;20109;-70
2022/05/20 05:10:03;;;;;;;17.08;12.45;;;15.30;99.90;;;;;;5074058;28;20059;-70
2022/05/20 05:12:30;;;;;;;20.08;12.70;;;15.40;99.90;;;;;;5073937;28;20471;-70
2022/05/20 05:14:56;;;;;;;15.63;12.73;;;15.50;99.90;;;;;;5073872;28;20051;-70
2022/05/20 05:20:18;;;;;;;18.23;12.63;;;15.60;99.90;;;;;;5073954;28;20148;-70
2022/05/20 05:22:44;;;;;;;16.40;12.20;;;15.70;99.90;;;;;;5039433;28;20056;-70
2022/05/20 05:25:12;;;;;;;15.25;12.88;;;15.70;99.90;;;;;;5073626;28;20044;-70
2022/05/20 05:27:39;;;;;;;16.35;12.35;;;15.70;99.90;;;;;;5073821;28;20052;-70
2022/05/20 05:30:05;;;;;;;17.95;12.90;;;15.90;99.90;;;;;;5073497;28;20049;-70
2022/05/20 05:32:31;;;;;;;17.00;12.35;;;15.90;99.90;;;;;;5055440;28;20458;-70
2022/05/20 05:34:57;;;;;;;16.13;12.90;;;16.10;99.90;;;;;;5073704;28;20080;-70
2022/05/20 05:37:22;;;;;;;18.83;12.68;;;16.20;99.90;;;;;;5055828;28;20095;-70
2022/05/20 05:39:48;;;;;;;16.23;11.95;;;16.40;99.90;;;;;;5073539;28;20044;-70
2022/05/20 05:42:14;;;;;;;17.25;12.57;;;16.40;99.90;;;;;;5073422;28;20040;-70
2022/05/20 05:44:39;;;;;;;17.02;11.93;;;16.40;99.90;;;;;;5073273;28;20127;-70
2022/05/20 05:47:05;;;;;;;15.93;11.35;;;16.50;99.90;;;;;;5038920;28;20128;-70
2022/05/20 05:49:31;;;;;;;13.75;11.60;;;16.50;99.90;;;;;;5073045;28;20052;-70
2022/05/20 05:51:57;;;;;;;19.13;13.10;;;16.60;99.90;;;;;;5055752;28;20447;-70
2022/05/20 05:54:22;;;;;;;13.85;11.27;;;16.70;99.90;;;;;;5055861;28;20106;-69
2022/05/20 05:56:49;;;;;;;16.50;11.40;;;16.90;99.90;;;;;;5073194;28;20073;-69
2022/05/20 05:59:15;;;;;;;15.13;11.88;;;17.00;99.90;;;;;;5073469;28;20049;-70
2022/05/20 06:01:41;;;;;;;16.73;10.65;;;17.20;99.90;;;;;;5038827;28;20049;-70
2022/05/20 06:04:07;;;;;;;15.77;10.93;;;17.30;99.90;;;;;;5073213;28;20110;-70
2022/05/20 06:06:32;;;;;;;21.92;11.00;;;17.20;99.90;;;;;;5073817;28;20052;-69
2022/05/20 06:08:58;;;;;;;16.98;11.85;;;17.30;99.90;;;;;;5073213;28;20127;-69
2022/05/20 06:11:24;;;;;;;17.52;12.05;;;17.40;99.90;;;;;;5073334;28;20048;-70
2022/05/20 06:13:50;;;;;;;19.95;12.07;;;17.30;99.90;;;;;;5073249;28;20056;-70
2022/05/20 06:16:21;;;;;;;18.30;12.52;;;17.10;99.90;;;;;;5055559;28;20049;-70
2022/05/20 06:18:47;;;;;;;15.60;10.77;;;16.80;99.90;;;;;;5072659;28;20048;-70
2022/05/20 06:21:13;;;;;;;15.45;9.38;;;17.00;99.90;;;;;;5067011;28;20698;-70
2022/05/20 06:23:38;;;;;;;17.02;10.98;;;17.20;99.90;;;;;;5045183;28;20037;-70
2022/05/20 06:26:04;;;;;;;12.38;9.80;;;17.10;99.90;;;;;;5067166;28;20464;-70
2022/05/20 06:28:30;;;;;;;17.20;10.63;;;17.10;99.90;;;;;;5073441;28;20061;-70
2022/05/20 06:30:57;;;;;;;18.00;9.65;;;17.30;99.90;;;;;;5055149;28;20497;-70
2022/05/20 06:33:24;;;;;;;16.58;10.07;;;17.40;99.90;;;;;;5073418;28;20073;-70
2022/05/20 06:41:19;;;;;;;13.98;9.35;;;17.40;99.90;;;;;;5053927;28;20102;-72
2022/05/20 06:43:45;;;;;;;12.07;8.98;;;17.30;99.90;;;;;;5072198;28;20045;-72
2022/05/20 06:46:11;;;;;;;12.48;7.88;;;17.30;99.90;;;;;;5066432;28;20052;-73
2022/05/20 06:48:49;;;;;;;14.05;7.40;;;17.30;99.90;;;;;;5052353;28;20082;-71
2022/05/20 06:51:18;;;;;;;17.05;8.63;;;17.30;99.90;;;;;;5052578;28;20049;-73
2022/05/20 06:53:45;;;;;;;12.32;7.10;;;17.50;99.90;;;;;;5057208;28;20748;-75
2022/05/20 06:56:12;;;;;;;15.75;7.00;;;17.20;99.90;;;;;;5058243;28;20040;-73
2022/05/20 06:58:38;;;;;;;10.00;6.55;;;17.10;99.90;;;;;;5036418;28;20545;-72
2022/05/20 07:01:04;;;;;;;10.45;7.20;;;17.20;99.90;;;;;;5034304;28;20160;-75
2022/05/20 07:03:30;;;;;;;13.88;8.00;;;17.20;99.90;;;;;;5052386;28;20095;-71
2022/05/20 07:05:56;;;;;;;12.75;8.68;;;17.20;99.90;;;;;;5052649;28;20048;-70
2022/05/20 07:08:22;;;;;;;14.48;8.52;;;17.40;99.90;;;;;;5052996;28;20052;-71
2022/05/20 07:10:48;;;;;;;14.45;7.75;;;17.40;99.90;;;;;;5052373;28;20496;-73
2022/05/20 07:13:14;;;;;;;15.05;7.85;;;17.40;99.90;;;;;;5056269;28;20049;-74
2022/05/20 07:15:40;;;;;;;13.95;7.85;;;17.50;99.90;;;;;;5040278;28;20115;-74
2022/05/20 07:18:06;;;;;;;11.38;6.60;;;17.50;99.90;;;;;;5057537;28;20052;-73
2022/05/20 07:20:31;;;;;;;11.13;6.50;;;17.80;99.90;;;;;;5056078;28;20049;-73
2022/05/20 07:22:57;;;;;;;14.40;6.78;;;17.80;99.90;;;;;;5055833;28;20051;-74
2022/05/20 07:25:24;;;;;;;11.20;6.88;;;17.90;99.90;;;;;;5038410;28;20060;-73
2022/05/20 07:27:50;;;;;;;5.43;2.75;;;17.90;99.90;;;;;;5055701;28;20178;-77
2022/05/20 07:30:17;;;;;;;6.90;4.22;;;18.10;99.90;;;;;;5038561;28;20080;-77
2022/05/20 07:32:42;;;;;;;12.30;5.38;;;18.30;99.90;;;;;;5038317;28;20130;-77
2022/05/20 07:35:11;;;;;;;12.45;5.43;;;18.50;99.90;;;;;;5038268;28;20135;-77
2022/05/20 07:37:37;;;;;;;8.88;4.43;;;18.50;99.90;;;;;;5037836;28;20068;-74
2022/05/20 07:40:04;;;;;;;12.20;5.00;;;18.50;99.90;;;;;;5055996;28;20481;-79
2022/05/20 07:42:30;;;;;;;11.05;4.90;;;18.40;99.90;;;;;;5038050;28;20057;-79
2022/05/20 07:44:56;;;;;;;10.52;4.05;;;18.50;99.90;;;;;;5037818;28;20504;-80
2022/05/20 07:47:24;;;;;;;10.65;3.88;;;18.70;99.90;;;;;;5037596;28;20045;-81
2022/05/20 07:49:50;;;;;;;11.77;4.40;;;18.70;99.90;;;;;;5021630;28;20045;-79
2022/05/20 07:55:02;;;;;;;6.68;3.38;;;18.70;99.90;;;;;;5037872;28;20489;-79
2022/05/20 07:57:29;;;;;;;9.27;3.45;;;18.60;99.90;;;;;;5037567;28;20549;-79
2022/05/20 07:59:55;;;;;;;8.70;3.42;;;18.40;99.90;;;;;;5037615;28;20041;-81
2022/05/20 08:02:24;;;;;;;4.80;3.40;;;18.00;99.90;;;;;;5037723;28;20107;-81
2022/05/20 08:04:53;;;;;;;12.05;3.85;;;18.00;99.90;;;;;;5036858;28;20085;-80
2022/05/20 08:07:20;;;;;;;9.63;3.58;;;17.90;99.90;;;;;;5037675;28;20135;-82
2022/05/20 08:09:47;;;;;;;10.02;3.55;;;17.90;99.90;;;;;;5021211;28;20456;-81
2022/05/20 08:12:13;;;;;;;6.35;2.65;;;18.00;99.90;;;;;;5020881;28;20135;-80
2022/05/20 08:14:39;;;;;;;7.30;2.80;;;17.80;99.90;;;;;;5037633;28;20055;-81
2022/05/20 08:17:05;;;;;;;6.15;2.45;;;17.60;99.90;;;;;;5037348;28;20045;-82
2022/05/20 08:19:32;;;;;;;4.88;2.33;;;17.90;99.90;;;;;;5037057;28;20067;-80
2022/05/20 08:21:58;;;;;;;7.68;2.55;;;18.10;99.90;;;;;;5037239;28;20047;-79
2022/05/20 08:24:23;;;;;;;5.10;1.77;;;17.90;99.90;;;;;;5036209;28;20057;-80
2022/05/20 08:26:50;;;;;;;8.15;2.33;;;17.90;99.90;;;;;;5037186;28;20143;-81
2022/05/20 08:29:16;;;;;;;5.30;2.38;;;18.20;99.90;;;;;;5020452;28;20048;-81
2022/05/20 08:31:43;;;;;;;8.13;2.67;;;18.20;99.90;;;;;;5036582;28;20509;-83
2022/05/20 08:34:09;;;;;;;5.40;2.40;;;18.20;99.90;;;;;;5037463;28;20045;-81
2022/05/20 08:36:35;;;;;;;7.88;2.25;;;18.40;99.90;;;;;;5037154;28;20053;-82
2022/05/20 08:39:02;;;;;;;4.82;2.10;;;18.60;99.90;;;;;;5020559;28;20103;-81
2022/05/20 08:41:38;;;;;;;6.60;2.60;;;18.50;99.90;;;;;;5020551;28;20132;-81
2022/05/20 08:44:06;;;;;;;5.72;2.17;;;18.20;99.90;;;;;;5036769;28;20533;-81
2022/05/20 08:46:32;;;;;;;6.82;3.30;;;18.50;99.90;;;;;;5037229;28;20053;-83
2022/05/20 08:48:58;;;;;;;6.30;3.30;;;18.50;99.90;;;;;;5036438;28;20048;-81
2022/05/20 08:51:33;;;;;;;7.63;3.35;;;18.60;99.90;;;;;;5036783;28;20080;-81
2022/05/20 08:54:02;;;;;;;11.85;3.80;;;18.70;99.90;;;;;;5037242;28;20045;-81
2022/05/20 08:56:28;;;;;;;8.82;3.55;;;18.80;99.90;;;;;;5036750;28;20048;-79
2022/05/20 08:58:59;;;;;;;7.25;3.63;;;18.50;99.90;;;;;;5036126;28;20505;-81
2022/05/20 09:01:40;;;;;;;11.27;3.53;;;18.50;99.90;;;;;;5036400;28;20052;-81
2022/05/20 09:04:09;;;;;;;9.85;3.65;;;18.60;99.90;;;;;;5036461;28;20384;-81
2022/05/20 09:07:10;;;;;;;7.22;2.88;;;18.50;99.90;;;;;;5036704;28;20049;-80
2022/05/20 09:09:47;;;;;;;7.25;3.28;;;18.60;99.90;;;;;;5036575;28;20045;-84
2022/05/20 09:12:28;;;;;;;9.60;3.92;;;18.60;99.90;;;;;;5036853;28;20095;-84
2022/05/20 09:18:20;;;;;;;7.00;3.50;;;19.10;99.90;;;;;;5035788;28;20504;-86
2022/05/20 09:20:51;;;;;;;8.50;3.78;;;19.20;99.90;;;;;;5036718;28;20056;-86
2022/05/20 09:23:20;;;;;;;8.07;2.70;;;18.90;99.90;;;;;;5019605;28;20053;-86
2022/05/20 09:25:54;;;;;;;8.43;2.47;;;19.10;99.90;;;;;;5019953;28;20048;-84
2022/05/20 09:28:31;;;;;;;13.13;3.17;;;19.20;99.90;;;;;;5035661;28;20057;-86
2022/05/20 09:31:31;;;;;;;7.05;2.38;;;19.10;99.90;;;;;;5019850;28;20057;-74
2022/05/20 09:34:13;;;;;;;8.05;2.70;;;19.20;99.90;;;;;;5034374;28;20127;-74
2022/05/20 09:36:55;;;;;;;8.73;2.30;;;19.30;99.90;;;;;;5065516;28;20076;-75
2022/05/20 09:39:30;;;;;;;7.25;2.58;;;19.40;99.90;;;;;;5054907;28;20068;-80
2022/05/20 09:41:58;;;;;;;7.15;2.38;;;19.50;99.90;;;;;;5020956;28;20095;-81
2022/05/20 09:44:38;;;;;;;9.25;2.60;;;19.70;99.90;;;;;;5035586;28;20049;-79
2022/05/20 09:47:10;;;;;;;5.30;2.53;;;19.70;99.90;;;;;;5047394;28;20071;-79
2022/05/20 09:50:02;;;;;;;6.18;2.35;;;19.50;99.90;;;;;;5044085;28;20083;-79
2022/05/20 09:52:51;;;;;;;5.55;2.20;;;19.60;99.90;;;;;;5042800;28;20051;-77
2022/05/20 09:55:34;;;;;;;6.60;2.70;;;19.60;99.90;;;;;;5049841;28;20063;-79
2022/05/20 09:58:27;;;;;;;6.43;2.92;;;19.60;99.90;;;;;;5068949;28;20062;-78
2022/05/20 10:00:59;;;;;;;8.38;2.78;;;19.70;99.90;;;;;;5040097;28;20053;-79
2022/05/20 10:03:34;;;;;;;7.25;2.58;;;19.70;99.90;;;;;;5040713;28;20117;-73
2022/05/20 10:06:31;;;;;;;7.70;2.83;;;19.50;99.90;;;;;;5066574;28;20135;-71
2022/05/20 10:09:16;;;;;;;6.93;3.42;;;19.80;99.90;;;;;;5053008;28;20080;-72
2022/05/20 10:11:53;;;;;;;8.18;3.40;;;19.90;99.90;;;;;;5035667;28;20477;-69
2022/05/20 10:14:56;;;;;;;10.40;3.80;;;20.10;99.90;;;;;;5053318;28;20083;-73
2022/05/20 10:18:04;;;;;;;7.22;3.67;;;20.20;99.90;;;;;;5052971;28;20057;-68
2022/05/20 10:20:57;;;;;;;10.15;3.60;;;20.10;99.90;;;;;;5042102;28;20080;-69
2022/05/20 10:23:46;;;;;;;7.70;3.30;;;20.20;99.90;;;;;;5053041;28;20472;-70
2022/05/20 10:26:41;;;;;;;8.13;4.22;;;20.30;99.90;;;;;;5053157;28;20049;-69
2022/05/20 10:35:17;;;;;;;8.50;4.13;;;20.50;99.90;;;;;;4991601;28;20047;-69
2022/05/20 10:38:10;;;;;;;7.38;3.80;;;20.70;99.90;;;;;;5028527;28;20060;-69
2022/05/20 10:40:39;;;;;;;9.63;4.00;;;20.70;99.90;;;;;;5053159;28;20060;-69
2022/05/20 10:43:13;;;;;;;8.90;3.70;;;20.60;99.90;;;;;;5052669;28;20090;-70
2022/05/20 10:48:58;;;;;;;6.68;3.30;;;20.40;99.90;;;;;;5056304;28;20136;-69
2022/05/20 10:51:40;;;;;;;7.20;3.70;;;20.30;99.90;;;;;;5038950;28;20485;-70
2022/05/20 10:54:30;;;;;;;6.70;2.67;;;20.20;99.90;;;;;;5056661;28;20041;-70
2022/05/20 10:57:17;;;;;;;9.88;3.78;;;20.30;99.90;;;;;;5056958;28;20045;-68
2022/05/20 10:59:48;;;;;;;;;;;20.30;99.90;;;;;;5059953;28;20041;-69
2022/05/20 11:03:02;;;;;;;9.00;4.30;;;20.40;99.90;;;;;;5056469;28;19927;-71
2022/05/20 11:05:37;;;;;;;7.00;3.50;;;20.30;99.90;;;;;;5058387;28;20045;-69
2022/05/20 11:08:17;;;;;;;6.40;3.47;;;20.30;99.90;;;;;;5068573;28;20048;-69
2022/05/20 11:10:52;;;;;;;7.05;3.42;;;20.50;99.90;;;;;;5076894;28;20044;-70
2022/05/20 11:13:26;;;;;;;5.97;3.10;;;20.70;99.90;;;;;;5076118;28;20052;-71
2022/05/20 11:16:18;;;;;;;8.05;3.33;;;20.70;99.90;;;;;;5058629;28;20045;-69
2022/05/20 11:19:20;;;;;;;5.28;3.30;;;20.90;99.90;;;;;;5027724;28;20060;-70
2022/05/20 11:22:21;;;;;;;6.72;4.15;;;20.90;99.90;;;;;;5076034;28;20564;-70
2022/05/20 11:25:05;;;;;;;6.10;3.80;;;20.90;99.90;;;;;;5076123;28;20114;-71
2022/05/20 11:28:14;;;;;;;7.38;3.95;;;20.90;99.90;;;;;;5076353;28;20130;-70
2022/05/20 11:30:47;;;;;;;8.73;4.43;;;21.40;99.90;;;;;;5075893;28;20063;-69
2022/05/20 11:33:13;;;;;;;5.03;3.67;;;21.70;99.90;;;;;;5075831;28;20101;-70
2022/05/20 11:36:07;;;;;;;8.48;3.83;;;21.90;99.90;;;;;;5076017;28;20442;-70
2022/05/20 11:39:10;;;;;;;7.38;4.13;;;22.20;99.80;;;;;;5075873;28;20400;-70
2022/05/20 11:41:55;;;;;;;9.60;4.35;;;22.00;99.80;;;;;;5075683;28;20048;-70
2022/05/20 11:44:40;;;;;;;7.70;4.53;;;22.40;99.50;;;;;;5076237;28;20067;-72
2022/05/20 11:47:13;;;;;;;5.07;3.50;;;22.20;99.60;;;;;;5075699;28;20044;-71
2022/05/20 11:49:53;;;;;;;6.97;3.33;;;22.20;99.00;;;;;;5057668;28;20052;-70
2022/05/20 11:52:49;;;;;;;4.95;2.83;;;22.10;98.50;;;;;;5075672;28;20044;-69
2022/05/20 11:55:26;;;;;;;13.05;3.20;;;22.00;97.70;;;;;;5058277;28;20056;-72
2022/05/20 11:58:01;;;;;;;6.40;3.38;;;22.20;98.50;;;;;;5075454;28;20040;-71
2022/05/20 12:00:29;;;;;;;9.65;4.00;;;22.40;98.80;;;;;;5075129;28;20378;-73
2022/05/20 12:03:03;;;;;;;7.65;4.68;;;22.50;98.30;;;;;;5057906;28;20105;-72
2022/05/20 12:05:32;;;;;;;8.93;4.07;;;22.50;98.60;;;;;;5075310;28;20040;-73
2022/05/20 12:07:58;;;;;;;5.20;4.10;;;22.70;98.80;;;;;;5075489;28;20045;-73
2022/05/20 12:10:30;;;;;;;7.65;4.40;;;22.80;98.50;;;;;;5075225;28;20118;-72
2022/05/20 12:13:15;;;;;;;7.07;4.20;;;22.60;98.70;;;;;;5057257;28;20102;-73
2022/05/20 12:15:47;;;;;;;6.25;3.97;;;22.50;98.50;;;;;;5075167;28;20086;-73
2022/05/20 12:24:29;;;;;;;5.75;3.20;;;21.80;98.20;;;;;;5075073;28;20050;-73
2022/05/20 12:26:56;;;;;;;7.45;4.35;;;22.20;98.90;;;;;;5074403;28;20044;-75
2022/05/20 12:29:40;;;;;;;6.10;3.55;;;22.40;99.30;;;;;;5057218;28;20052;-74
2022/05/20 12:32:29;;;;;;;12.23;5.43;;;22.70;98.90;;;;;;5057331;28;20374;-73
2022/05/20 12:35:08;;;;;;;7.68;5.03;;;22.40;98.60;;;;;;5057349;28;20413;-74
2022/05/20 12:37:43;;;;;;;5.93;4.57;;;22.50;98.80;;;;;;5074702;28;20041;-74
2022/05/20 12:40:18;;;;;;;6.70;5.72;;;22.60;98.10;;;;;;5056995;28;20097;-74
2022/05/20 12:43:39;;;;;;;12.68;6.32;;;22.80;98.20;;;;;;5057050;28;20060;-73
2022/05/20 12:46:05;;;;;;;8.50;6.43;;;22.70;98.70;;;;;;4976925;28;20446;-73
2022/05/20 12:48:31;;;;;;;8.48;4.57;;;22.90;98.50;;;;;;5067913;28;20053;-73
2022/05/20 12:51:02;;;;;;;8.50;6.63;;;23.00;99.20;;;;;;5056870;28;20531;-74
2022/05/20 12:53:30;;;;;;;8.02;6.32;;;23.10;98.30;;;;;;5074443;28;20052;-73
2022/05/20 12:55:57;;;;;;;8.50;6.65;;;23.20;98.50;;;;;;5056764;28;20082;-73
2022/05/20 12:58:27;;;;;;;9.43;6.60;;;23.00;98.50;;;;;;5074562;28;20049;-73
2022/05/20 13:00:57;;;;;;;8.40;5.88;;;22.90;98.90;;;;;;5074025;28;20040;-73
2022/05/20 13:03:41;;;;;;;10.35;5.30;;;22.40;98.20;;;;;;5057227;28;20099;-73
2022/05/20 13:06:15;;;;;;;6.78;4.47;;;22.50;98.10;;;;;;5074068;28;20049;-72
2022/05/20 13:08:50;;;;;;;7.20;3.83;;;22.50;98.10;;;;;;5056034;28;20074;-74
2022/05/20 13:11:18;;;;;;;7.70;4.28;;;22.50;98.00;;;;;;5073979;28;20057;-79
2022/05/20 13:13:51;;;;;;;9.68;4.10;;;22.30;97.30;;;;;;5056557;28;20056;-80
2022/05/20 13:16:21;;;;;;;6.00;3.90;;;21.50;98.20;;;;;;5057148;28;20109;-80
2022/05/20 13:19:04;;;;;;;6.82;3.90;;;21.20;98.30;;;;;;5055623;28;20132;-72
2022/05/20 13:21:52;;;;;;;9.98;5.50;;;21.20;98.90;;;;;;5073818;28;20105;-73
2022/05/20 13:24:24;;;;;;;9.70;6.07;;;21.50;98.80;;;;;;5073913;28;20119;-72
2022/05/20 13:27:07;;;;;;;8.00;5.45;;;21.60;98.70;;;;;;5074140;28;20048;-70
2022/05/20 13:29:34;;;;;;;10.25;5.57;;;21.60;99.30;;;;;;5063771;28;20834;-71
2022/05/20 13:32:27;;;;;;;7.57;5.10;;;21.70;99.00;;;;;;5060641;28;20058;-72
2022/05/20 13:34:54;;;;;;;6.13;4.28;;;21.50;99.40;;;;;;5073481;28;20044;-72
2022/05/20 13:37:30;;;;;;;7.38;4.43;;;21.50;99.90;;;;;;5054583;28;20537;-72
2022/05/20 13:40:08;;;;;;;5.43;3.72;;;21.60;99.40;;;;;;5053583;28;20049;-70
2022/05/20 13:42:33;;;;;;;9.73;3.20;;;21.40;99.00;;;;;;5035874;28;20115;-72
2022/05/20 13:45:06;;;;;;;5.55;2.92;;;21.30;99.60;;;;;;5053780;28;20041;-73
2022/05/20 13:50:19;;;;;;;;;;;21.10;99.10;;;;;;5056946;28;20048;-70
2022/05/20 13:52:44;;;;;;;7.07;2.40;;;20.90;98.70;;;;;;5053550;28;19927;-70